createdAt,value
2018-12-14T00:01:08.109Z,96856.37
2018-12-14T00:03:34.283Z,96862.22
2018-12-14T00:06:00.157Z,96853.04
2018-12-14T00:08:26.091Z,96851.47
2018-12-14T00:10:51.967Z,96857.67
2018-12-14T00:13:17.982Z,96858.38
2018-12-14T00:15:43.895Z,96860.19
2018-12-14T00:18:09.854Z,96860.30
2018-12-14T00:20:35.745Z,96860.54
2018-12-14T00:23:01.624Z,96859.98
2018-12-14T00:25:27.543Z,96861.28
2018-12-14T00:27:53.444Z,96854.10
2018-12-14T00:30:19.431Z,96851.20
2018-12-14T00:32:45.333Z,96861.36
2018-12-14T00:35:11.282Z,96857.48
2018-12-14T00:37:37.186Z,96861.41
2018-12-14T00:40:04.070Z,96851.78
2018-12-14T00:42:29.934Z,96851.13
2018-12-14T00:44:55.825Z,96846.66
2018-12-14T00:47:21.759Z,96850.34
2018-12-14T00:49:47.629Z,96858.82
2018-12-14T00:52:13.587Z,96865.25
2018-12-14T00:54:39.565Z,96860.58
2018-12-14T00:57:05.455Z,96861.37
2018-12-14T00:59:31.307Z,96861.05
2018-12-14T01:01:57.207Z,96861.64
2018-12-14T01:04:23.087Z,96863.72
2018-12-14T01:06:49.015Z,96866.55
2018-12-14T01:09:14.923Z,96862.86
2018-12-14T01:11:40.932Z,96864.98
2018-12-14T01:14:06.795Z,96862.66
2018-12-14T01:16:32.818Z,96864.62
2018-12-14T01:18:58.715Z,96871.64
2018-12-14T01:21:24.565Z,96869.37
2018-12-14T01:23:50.520Z,96869.41
2018-12-14T01:26:16.421Z,96875.11
2018-12-14T01:28:42.321Z,96875.14
2018-12-14T01:31:08.212Z,96879.54
2018-12-14T01:33:34.281Z,96881.86
2018-12-14T01:36:00.164Z,96871.73
2018-12-14T01:38:26.018Z,96871.18
2018-12-14T01:40:51.930Z,96870.20
2018-12-14T01:43:17.819Z,96864.94
2018-12-14T01:45:43.698Z,96867.25
2018-12-14T01:48:09.602Z,96867.57
2018-12-14T01:50:35.498Z,96868.78
2018-12-14T01:53:01.358Z,96864.74
2018-12-14T01:55:27.210Z,96860.58
2018-12-14T01:57:53.231Z,96854.03
2018-12-14T02:00:19.171Z,96861.28
2018-12-14T02:02:45.154Z,96862.58
2018-12-14T02:05:11.015Z,96859.25
2018-12-14T02:07:37.102Z,96855.83
2018-12-14T02:10:03.398Z,96854.77
2018-12-14T02:12:29.286Z,96853.32
2018-12-14T02:14:55.188Z,96858.66
2018-12-14T02:17:21.055Z,96857.98
2018-12-14T02:19:46.972Z,96857.75
2018-12-14T02:22:12.934Z,96856.14
2018-12-14T02:24:38.851Z,96862.02
2018-12-14T02:27:04.888Z,96861.78
2018-12-14T02:29:30.845Z,96852.95
2018-12-14T02:31:56.730Z,96847.20
2018-12-14T02:34:22.600Z,96853.27
2018-12-14T02:36:48.551Z,96848.22
2018-12-14T02:39:14.424Z,96846.09
2018-12-14T02:41:40.317Z,96841.47
2018-12-14T02:44:06.235Z,96814.20
2018-12-14T02:46:32.114Z,96840.41
2018-12-14T02:48:58.015Z,96837.13
2018-12-14T02:51:23.907Z,96840.88
2018-12-14T02:53:49.794Z,96840.88
2018-12-14T02:56:15.683Z,96846.83
2018-12-14T02:58:41.709Z,96846.67
2018-12-14T03:01:07.603Z,96842.42
2018-12-14T03:03:33.491Z,96843.48
2018-12-14T03:05:59.361Z,96840.62
2018-12-14T03:08:25.342Z,96840.66
2018-12-14T03:10:51.298Z,96846.53
2018-12-14T03:13:17.204Z,96847.64
2018-12-14T03:15:43.090Z,96851.48
2018-12-14T03:18:09.017Z,96847.59
2018-12-14T03:20:34.997Z,96849.91
2018-12-14T03:23:00.974Z,96845.20
2018-12-14T03:25:26.974Z,96848.84
2018-12-14T03:27:52.943Z,96844.56
2018-12-14T03:30:18.828Z,96849.08
2018-12-14T03:32:44.741Z,96846.88
2018-12-14T03:35:10.658Z,96845.70
2018-12-14T03:37:36.535Z,96848.91
2018-12-14T03:40:03.591Z,96850.75
2018-12-14T03:42:34.397Z,96854.87
2018-12-14T03:44:57.548Z,96857.64
2018-12-14T03:47:24.334Z,96853.02
2018-12-14T03:49:50.211Z,96852.00
2018-12-14T03:52:16.189Z,96853.11
2018-12-14T03:54:42.134Z,96857.64
2018-12-14T03:57:08.057Z,96856.58
2018-12-14T03:59:34.024Z,96853.20
2018-12-14T04:01:59.941Z,96858.30
2018-12-14T04:04:25.842Z,96856.73
2018-12-14T04:06:51.740Z,96852.47
2018-12-14T04:09:17.674Z,96853.80
2018-12-14T04:11:43.571Z,96857.52
2018-12-14T04:14:09.444Z,96856.62
2018-12-14T04:16:35.351Z,96857.36
2018-12-14T04:19:01.358Z,96856.22
2018-12-14T04:21:34.347Z,96863.98
2018-12-14T04:24:00.211Z,96856.68
2018-12-14T04:26:26.262Z,96866.84
2018-12-14T04:28:52.154Z,96866.64
2018-12-14T04:31:18.023Z,96869.84
2018-12-14T04:33:44.093Z,96867.86
2018-12-14T04:36:09.978Z,96869.33
2018-12-14T04:38:35.886Z,96869.10
2018-12-14T04:41:01.856Z,96869.60
2018-12-14T04:43:34.714Z,96871.81
2018-12-14T04:46:00.605Z,96875.23
2018-12-14T04:48:26.530Z,96869.79
2018-12-14T04:50:52.422Z,96866.73
2018-12-14T04:53:18.326Z,96866.84
2018-12-14T04:55:44.207Z,96867.98
2018-12-14T04:58:10.106Z,96871.59
2018-12-14T05:00:36.010Z,96871.36
2018-12-14T05:03:01.908Z,96872.75
2018-12-14T05:05:27.778Z,96874.60
2018-12-14T05:07:53.683Z,96877.09
2018-12-14T05:10:19.570Z,96881.20
2018-12-14T05:12:45.525Z,96879.17
2018-12-14T05:15:11.467Z,96887.77
2018-12-14T05:17:37.467Z,96883.37
2018-12-14T05:20:04.648Z,96893.45
2018-12-14T05:22:30.511Z,96889.42
2018-12-14T05:24:56.385Z,96886.93
2018-12-14T05:27:22.385Z,96878.89
2018-12-14T05:29:48.614Z,96893.85
2018-12-14T05:32:14.492Z,96894.18
2018-12-14T05:34:40.339Z,96898.01
2018-12-14T05:37:06.224Z,96896.81
2018-12-14T05:39:32.097Z,96900.92
2018-12-14T05:41:58.116Z,96904.12
2018-12-14T05:44:23.991Z,96901.05
2018-12-14T05:46:49.870Z,96898.23
2018-12-14T05:49:15.785Z,96898.94
2018-12-14T05:51:41.648Z,96899.80
2018-12-14T05:54:07.498Z,96905.08
2018-12-14T05:56:33.486Z,96909.19
2018-12-14T05:58:59.414Z,96913.30
2018-12-14T06:01:25.318Z,96900.19
2018-12-14T06:03:51.651Z,96909.23
2018-12-14T06:06:17.570Z,96911.17
2018-12-14T06:08:43.446Z,96914.64
2018-12-14T06:11:09.345Z,96919.03
2018-12-14T06:13:35.248Z,96922.63
2018-12-14T06:16:01.166Z,96918.80
2018-12-14T06:18:27.031Z,96920.88
2018-12-14T06:20:52.921Z,96918.30
2018-12-14T06:23:18.783Z,96935.56
2018-12-14T06:25:44.649Z,96932.34
2018-12-14T06:28:10.540Z,96939.63
2018-12-14T06:30:36.557Z,96929.60
2018-12-14T06:33:02.434Z,96931.41
2018-12-14T06:35:28.331Z,96935.94
2018-12-14T06:37:54.222Z,96934.88
2018-12-14T06:40:20.123Z,96938.02
2018-12-14T06:42:46.024Z,96933.86
2018-12-14T06:45:12.377Z,96937.47
2018-12-14T06:47:38.273Z,96941.20
2018-12-14T06:50:04.804Z,96944.58
2018-12-14T06:52:30.713Z,96945.19
2018-12-14T06:54:56.614Z,96940.80
2018-12-14T06:57:22.583Z,96942.49
2018-12-14T06:59:48.465Z,96937.83
2018-12-14T07:02:14.344Z,96950.26
2018-12-14T07:04:40.393Z,96950.86
2018-12-14T07:07:06.312Z,96952.25
2018-12-14T07:09:32.825Z,96952.39
2018-12-14T07:11:58.676Z,96961.31
2018-12-14T07:14:24.547Z,96952.48
2018-12-14T07:16:50.505Z,96956.83
2018-12-14T07:19:16.514Z,96969.77
2018-12-14T07:21:42.390Z,96963.62
2018-12-14T07:24:08.385Z,96971.84
2018-12-14T07:26:34.593Z,96966.95
2018-12-14T07:29:00.907Z,96977.25
2018-12-14T07:31:26.764Z,96971.16
2018-12-14T07:33:52.642Z,96972.25
2018-12-14T07:36:18.601Z,96981.03
2018-12-14T07:38:48.144Z,96975.91
2018-12-14T07:41:12.519Z,96979.51
2018-12-14T07:43:38.416Z,96971.89
2018-12-14T07:46:04.391Z,96981.03
2018-12-14T07:48:30.255Z,96982.88
2018-12-14T07:50:56.149Z,96990.41
2018-12-14T07:53:22.087Z,96984.60
2018-12-14T07:55:47.963Z,96996.30
2018-12-14T07:58:13.820Z,96983.86
2018-12-14T08:00:39.732Z,96989.83
2018-12-14T08:03:05.575Z,96991.13
2018-12-14T08:05:31.450Z,96986.35
2018-12-14T08:07:57.362Z,96991.63
2018-12-14T08:10:23.474Z,96993.42
2018-12-14T08:12:49.990Z,96994.30
2018-12-14T08:15:16.206Z,96990.56
2018-12-14T08:17:42.082Z,97000.81
2018-12-14T08:20:07.991Z,97007.10
2018-12-14T08:22:33.974Z,97008.12
2018-12-14T08:24:59.847Z,96992.19
2018-12-14T08:27:25.718Z,97014.46
2018-12-14T08:29:51.908Z,97013.89
2018-12-14T08:32:18.022Z,97010.12
2018-12-14T08:34:43.899Z,97011.34
2018-12-14T08:37:09.848Z,97016.53
2018-12-14T08:39:35.735Z,97014.02
2018-12-14T08:42:01.594Z,97019.75
2018-12-14T08:44:27.534Z,97022.94
2018-12-14T08:46:53.378Z,97029.86
2018-12-14T08:49:19.302Z,97033.05
2018-12-14T08:51:45.201Z,97030.28
2018-12-14T08:54:11.110Z,97042.10
2018-12-14T08:56:36.981Z,97036.45
2018-12-14T08:59:02.902Z,97042.74
2018-12-14T09:01:28.797Z,97043.44
2018-12-14T09:03:54.740Z,97045.25
2018-12-14T09:06:20.722Z,97036.27
2018-12-14T09:08:46.620Z,97044.55
2018-12-14T09:11:13.513Z,97046.52
2018-12-14T09:13:39.438Z,97045.97
2018-12-14T09:16:05.348Z,97045.86
2018-12-14T09:18:31.958Z,97050.48
2018-12-14T09:21:01.079Z,97047.86
2018-12-14T09:23:25.795Z,97048.94
2018-12-14T09:25:51.855Z,97049.84
2018-12-14T09:28:17.680Z,97051.51
2018-12-14T09:30:43.582Z,97051.86
2018-12-14T09:33:09.460Z,97054.49
2018-12-14T09:35:35.399Z,97056.38
2018-12-14T09:38:01.280Z,97050.45
2018-12-14T09:43:07.314Z,97065.73
2018-12-14T09:45:33.197Z,97066.05
2018-12-14T09:47:59.026Z,97058.23
2018-12-14T09:50:24.897Z,97059.57
2018-12-14T09:52:50.779Z,97054.27
2018-12-14T09:55:16.661Z,97056.74
2018-12-14T09:57:42.592Z,97059.17
2018-12-14T10:00:08.595Z,97051.35
2018-12-14T10:02:34.490Z,97046.88
2018-12-14T10:05:00.361Z,97048.56
2018-12-14T10:07:26.218Z,97053.56
2018-12-14T10:09:52.074Z,97049.91
2018-12-14T10:12:17.899Z,97045.92
2018-12-14T10:14:43.722Z,97050.41
2018-12-14T10:17:09.558Z,97050.29
2018-12-14T10:19:35.403Z,97054.45
2018-12-14T10:22:08.397Z,97054.73
2018-12-14T10:24:34.355Z,97054.73
2018-12-14T10:27:00.189Z,97049.50
2018-12-14T10:29:26.086Z,97051.35
2018-12-14T10:31:51.947Z,97049.39
2018-12-14T10:34:17.810Z,97040.23
2018-12-14T10:36:43.677Z,97047.27
2018-12-14T10:39:09.514Z,97048.20
2018-12-14T10:41:35.363Z,97045.50
2018-12-14T10:44:07.236Z,97046.75
2018-12-14T10:46:29.442Z,97046.28
2018-12-14T10:48:55.307Z,97054.26
2018-12-14T10:51:21.151Z,97049.39
2018-12-14T10:53:46.989Z,97051.11
2018-12-14T10:56:12.847Z,97049.66
2018-12-14T10:58:38.702Z,97044.16
2018-12-14T11:01:14.255Z,97053.05
2018-12-14T11:06:31.399Z,97046.56
2018-12-14T11:08:57.255Z,97048.99
2018-12-14T11:11:23.221Z,97055.75
2018-12-14T11:13:49.229Z,97058.42
2018-12-14T11:16:15.095Z,97053.09
2018-12-14T11:18:40.977Z,97058.86
2018-12-14T11:21:06.834Z,97053.59
2018-12-14T11:23:32.700Z,97059.96
2018-12-14T11:25:58.602Z,97054.73
2018-12-14T11:28:24.451Z,97059.92
2018-12-14T11:30:50.316Z,97068.14
2018-12-14T11:33:16.326Z,97065.54
2018-12-14T11:35:42.211Z,97065.61
2018-12-14T11:38:08.179Z,97061.81
2018-12-14T11:40:34.085Z,97064.36
2018-12-14T11:42:59.974Z,97065.11
2018-12-14T11:45:25.849Z,97065.78
2018-12-14T11:47:51.739Z,97066.40
2018-12-14T11:50:17.609Z,97062.95
2018-12-14T11:52:43.529Z,97070.33
2018-12-14T11:55:09.410Z,97072.97
2018-12-14T11:57:35.264Z,97067.23
2018-12-14T12:00:01.199Z,97066.48
2018-12-14T12:02:27.165Z,97063.53
2018-12-14T12:04:52.995Z,97069.16
2018-12-14T12:07:18.866Z,97058.00
2018-12-14T12:09:44.747Z,97060.08
2018-12-14T12:12:10.610Z,97065.66
2018-12-14T12:14:36.477Z,97061.45
2018-12-14T12:17:02.465Z,97062.23
2018-12-14T12:19:28.334Z,97048.77
2018-12-14T12:21:54.227Z,97058.23
2018-12-14T12:24:20.313Z,97057.33
2018-12-14T12:26:46.171Z,97052.97
2018-12-14T12:29:12.027Z,97053.56
2018-12-14T12:31:44.860Z,97053.59
2018-12-14T12:34:10.718Z,97046.44
2018-12-14T12:36:36.773Z,97053.23
2018-12-14T12:39:04.426Z,97053.09
2018-12-14T12:41:30.326Z,97054.16
2018-12-14T12:43:56.206Z,97060.47
2018-12-14T12:46:22.114Z,97057.13
2018-12-14T12:48:48.164Z,97052.77
2018-12-14T12:51:14.142Z,97063.84
2018-12-14T12:53:40.027Z,97064.39
2018-12-14T12:56:05.879Z,97065.03
2018-12-14T12:58:31.688Z,97061.61
2018-12-14T13:00:57.545Z,97059.21
2018-12-14T13:03:23.453Z,97061.84
2018-12-14T13:05:49.330Z,97051.52
2018-12-14T13:08:15.184Z,97058.94
2018-12-14T13:10:41.065Z,97056.30
2018-12-14T13:13:06.891Z,97053.23
2018-12-14T13:15:32.741Z,97060.83
2018-12-14T13:17:58.628Z,97060.16
2018-12-14T13:20:24.494Z,97066.48
2018-12-14T13:22:50.411Z,97065.48
2018-12-14T13:25:23.251Z,97066.48
2018-12-14T13:27:49.219Z,97073.31
2018-12-14T13:30:15.113Z,97078.22
2018-12-14T13:32:41.035Z,97077.89
2018-12-14T13:35:06.886Z,97076.13
2018-12-14T13:37:32.893Z,97081.36
2018-12-14T13:39:58.773Z,97078.47
2018-12-14T13:42:24.751Z,97084.08
2018-12-14T13:44:51.041Z,97079.76
2018-12-14T13:47:17.168Z,97080.28
2018-12-14T13:49:43.064Z,97082.59
2018-12-14T13:52:09.038Z,97088.72
2018-12-14T13:54:34.924Z,97086.91
2018-12-14T13:57:00.842Z,97088.72
2018-12-14T13:59:26.695Z,97094.20
2018-12-14T14:01:52.546Z,97091.06
2018-12-14T14:04:18.414Z,97092.47
2018-12-14T14:06:44.317Z,97097.38
2018-12-14T14:09:10.239Z,97098.17
2018-12-14T14:11:36.134Z,97095.00
2018-12-14T14:14:02.091Z,97105.18
2018-12-14T14:16:27.957Z,97105.18
2018-12-14T14:18:53.944Z,97104.30
2018-12-14T14:21:19.929Z,97108.28
2018-12-14T14:23:45.839Z,97110.32
2018-12-14T14:26:11.730Z,97113.66
2018-12-14T14:28:37.585Z,97113.84
2018-12-14T14:31:03.465Z,97112.08
2018-12-14T14:33:29.354Z,97112.31
2018-12-14T14:35:55.465Z,97122.56
2018-12-14T14:38:21.356Z,97123.62
2018-12-14T14:40:47.276Z,97129.05
2018-12-14T14:43:13.162Z,97126.69
2018-12-14T14:45:39.117Z,97124.37
2018-12-14T14:48:05.025Z,97122.28
2018-12-14T14:53:25.793Z,97126.87
2018-12-14T14:55:51.665Z,97132.61
2018-12-14T14:58:17.545Z,97130.25
2018-12-14T15:00:43.570Z,97135.94
2018-12-14T15:03:09.745Z,97145.11
2018-12-14T15:05:35.686Z,97149.13
2018-12-14T15:08:01.555Z,97144.46
2018-12-14T15:10:27.418Z,97153.20
2018-12-14T15:12:53.304Z,97146.59
2018-12-14T15:15:19.215Z,97148.45
2018-12-14T15:17:45.196Z,97152.56
2018-12-14T15:20:11.109Z,97146.53
2018-12-14T15:22:36.974Z,97151.03
2018-12-14T15:25:03.073Z,97155.95
2018-12-14T15:27:29.023Z,97154.27
2018-12-14T15:29:54.978Z,97159.00
2018-12-14T15:32:21.173Z,97162.66
2018-12-14T15:34:47.040Z,97166.49
2018-12-14T15:37:12.980Z,97177.52
2018-12-14T15:39:38.857Z,97163.95
2018-12-14T15:42:04.789Z,97169.73
2018-12-14T15:44:30.712Z,97170.38
2018-12-14T15:46:56.628Z,97170.88
2018-12-14T15:49:22.591Z,97171.95
2018-12-14T15:51:48.499Z,97181.48
2018-12-14T15:54:14.436Z,97183.99
2018-12-14T15:56:40.317Z,97192.12
2018-12-14T15:59:06.281Z,97186.66
2018-12-14T16:01:32.203Z,97191.95
2018-12-14T16:03:58.123Z,97189.08
2018-12-14T16:06:24.018Z,97193.98
2018-12-14T16:08:49.938Z,97197.13
2018-12-14T16:11:15.838Z,97192.97
2018-12-14T16:13:41.744Z,97203.74
2018-12-14T16:16:07.646Z,97200.23
2018-12-14T16:18:33.575Z,97211.89
2018-12-14T16:20:59.604Z,97203.89
2018-12-14T16:23:25.563Z,97206.98
2018-12-14T16:25:52.583Z,97212.02
2018-12-14T16:28:18.613Z,97211.73
2018-12-14T16:30:44.515Z,97205.81
2018-12-14T16:33:10.450Z,97217.63
2018-12-14T16:35:43.475Z,97220.91
2018-12-14T16:38:09.383Z,97221.20
2018-12-14T16:40:35.273Z,97226.88
2018-12-14T16:43:01.145Z,97225.25
2018-12-14T16:45:27.058Z,97226.47
2018-12-14T16:47:53.895Z,97229.48
2018-12-14T16:50:19.769Z,97221.98
2018-12-14T16:52:47.611Z,97224.81
2018-12-14T16:55:13.873Z,97225.70
2018-12-14T16:57:39.782Z,97221.53
2018-12-14T17:00:06.877Z,97225.09
2018-12-14T17:02:32.781Z,97226.16
2018-12-14T17:04:58.658Z,97229.58
2018-12-14T17:07:24.665Z,97230.64
2018-12-14T17:09:50.659Z,97231.34
2018-12-14T17:12:16.764Z,97226.61
2018-12-14T17:14:42.677Z,97231.66
2018-12-14T17:17:08.550Z,97234.94
2018-12-14T17:19:34.440Z,97234.77
2018-12-14T17:22:00.310Z,97240.73
2018-12-14T17:24:26.272Z,97239.02
2018-12-14T17:26:52.878Z,97232.86
2018-12-14T17:29:18.958Z,97239.80
2018-12-14T17:31:44.885Z,97245.70
2018-12-14T17:34:11.501Z,97240.73
2018-12-14T17:36:38.320Z,97241.33
2018-12-14T17:39:04.828Z,97246.33
2018-12-14T17:41:30.731Z,97243.00
2018-12-14T17:43:57.694Z,97249.16
2018-12-14T17:46:23.667Z,97252.17
2018-12-14T17:48:49.570Z,97257.31
2018-12-14T17:51:15.465Z,97250.55
2018-12-14T17:53:41.740Z,97253.15
2018-12-14T17:56:07.657Z,97260.83
2018-12-14T17:58:33.534Z,97254.77
2018-12-14T18:00:59.461Z,97263.28
2018-12-14T18:03:25.361Z,97260.23
2018-12-14T18:05:51.864Z,97262.78
2018-12-14T18:08:17.770Z,97262.41
2018-12-14T18:10:43.706Z,97264.81
2018-12-14T18:13:09.731Z,97267.59
2018-12-14T18:15:35.585Z,97270.73
2018-12-14T18:18:01.492Z,97278.06
2018-12-14T18:20:27.444Z,97275.64
2018-12-14T18:22:53.660Z,97277.50
2018-12-14T18:25:20.019Z,97270.56
2018-12-14T18:27:46.019Z,97275.92
2018-12-14T18:30:12.045Z,97274.63
2018-12-14T18:32:37.910Z,97274.86
2018-12-14T18:35:04.922Z,97274.45
2018-12-14T18:37:30.901Z,97267.03
2018-12-14T18:39:56.840Z,97275.41
2018-12-14T18:42:22.778Z,97276.87
2018-12-14T18:44:48.748Z,97274.34
2018-12-14T18:47:14.784Z,97279.30
2018-12-14T18:49:40.848Z,97276.94
2018-12-14T18:52:06.759Z,97281.34
2018-12-14T18:54:33.047Z,97278.75
2018-12-14T18:56:58.975Z,97285.61
2018-12-14T18:59:25.219Z,97285.61
2018-12-14T19:01:51.597Z,97291.08
2018-12-14T19:04:17.538Z,97285.00
2018-12-14T19:06:43.512Z,97284.09
2018-12-14T19:09:09.455Z,97285.38
2018-12-14T19:11:35.369Z,97290.74
2018-12-14T19:14:01.425Z,97288.94
2018-12-14T19:16:27.355Z,97289.45
2018-12-14T19:18:53.235Z,97291.12
2018-12-14T19:21:19.116Z,97296.49
2018-12-14T19:23:45.106Z,97292.00
2018-12-14T19:26:11.076Z,97293.52
2018-12-14T19:28:37.230Z,97299.32
2018-12-14T19:31:03.192Z,97304.72
2018-12-14T19:33:29.208Z,97312.56
2018-12-14T19:35:55.175Z,97304.60
2018-12-14T19:38:21.211Z,97312.34
2018-12-14T19:40:47.135Z,97304.17
2018-12-14T19:43:13.002Z,97313.45
2018-12-14T19:45:38.926Z,97316.27
2018-12-14T19:48:04.826Z,97312.05
2018-12-14T19:50:30.727Z,97311.03
2018-12-14T19:52:56.666Z,97308.85
2018-12-14T19:55:22.669Z,97313.62
2018-12-14T19:57:48.655Z,97316.63
2018-12-14T20:00:14.709Z,97316.78
2018-12-14T20:02:40.748Z,97319.88
2018-12-14T20:05:07.251Z,97318.81
2018-12-14T20:07:33.151Z,97324.28
2018-12-14T20:09:59.059Z,97332.69
2018-12-14T20:12:24.953Z,97337.15
2018-12-14T20:14:50.862Z,97329.46
2018-12-14T20:17:16.969Z,97335.28
2018-12-14T20:19:42.841Z,97330.70
2018-12-14T20:22:15.812Z,97337.31
2018-12-14T20:24:41.697Z,97335.56
2018-12-14T20:27:07.714Z,97339.22
2018-12-14T20:29:33.607Z,97344.38
2018-12-14T20:31:59.488Z,97354.40
2018-12-14T20:34:25.394Z,97355.66
2018-12-14T20:36:51.332Z,97356.95
2018-12-14T20:39:17.354Z,97357.72
2018-12-14T20:41:43.278Z,97345.79
2018-12-14T20:44:09.233Z,97358.44
2018-12-14T20:46:35.264Z,97367.06
2018-12-14T20:49:01.181Z,97374.84
2018-12-14T20:51:27.157Z,97364.44
2018-12-14T20:53:53.054Z,97366.63
2018-12-14T20:56:18.995Z,97370.87
2018-12-14T20:58:44.952Z,97367.69
2018-12-14T21:01:10.859Z,97369.42
2018-12-14T21:03:36.782Z,97371.23
2018-12-14T21:06:02.758Z,97369.09
2018-12-14T21:08:28.764Z,97378.95
2018-12-14T21:10:54.618Z,97381.95
2018-12-14T21:13:20.566Z,97384.03
2018-12-14T21:15:46.480Z,97388.42
2018-12-14T21:18:12.387Z,97382.34
2018-12-14T21:20:38.469Z,97391.08
2018-12-14T21:23:04.438Z,97391.33
2018-12-14T21:25:30.299Z,97388.42
2018-12-14T21:27:56.195Z,97382.23
2018-12-14T21:30:22.071Z,97383.58
2018-12-14T21:32:47.906Z,97390.85
2018-12-14T21:35:13.787Z,97384.39
2018-12-14T21:37:46.618Z,97385.44
2018-12-14T21:40:12.539Z,97394.63
2018-12-14T21:42:38.402Z,97396.43
2018-12-14T21:45:05.721Z,97396.03
2018-12-14T21:47:31.672Z,97400.66
2018-12-14T21:49:57.597Z,97403.27
2018-12-14T21:52:23.528Z,97400.66
2018-12-14T21:54:49.413Z,97398.91
2018-12-14T21:57:15.368Z,97397.78
2018-12-14T21:59:41.225Z,97400.55
2018-12-14T22:02:07.203Z,97397.08
2018-12-14T22:04:33.243Z,97400.11
2018-12-14T22:06:59.160Z,97392.11
2018-12-14T22:09:25.081Z,97393.19
2018-12-14T22:11:51.104Z,97396.09
2018-12-14T22:14:17.000Z,97388.77
2018-12-14T22:16:42.885Z,97387.86
2018-12-14T22:19:08.818Z,97386.87
2018-12-14T22:21:34.683Z,97387.08
2018-12-14T22:24:00.562Z,97387.66
2018-12-14T22:26:26.430Z,97387.70
2018-12-14T22:28:52.275Z,97385.44
2018-12-14T22:31:18.140Z,97377.52
2018-12-14T22:33:43.991Z,97381.06
2018-12-14T22:36:09.910Z,97388.05
2018-12-14T22:38:35.811Z,97379.66
2018-12-14T22:41:01.748Z,97378.53
2018-12-14T22:43:27.606Z,97384.00
2018-12-14T22:45:53.504Z,97387.68
2018-12-14T22:48:19.377Z,97389.69
2018-12-14T22:50:45.405Z,97389.97
2018-12-14T22:53:11.284Z,97389.55
2018-12-14T22:55:37.178Z,97389.58
2018-12-14T22:58:03.104Z,97392.66
2018-12-14T23:00:29.086Z,97392.09
2018-12-14T23:02:54.976Z,97391.10
2018-12-14T23:05:20.945Z,97392.39
2018-12-14T23:07:46.857Z,97391.06
2018-12-14T23:10:12.873Z,97391.25
2018-12-14T23:12:38.781Z,97384.84
2018-12-14T23:15:05.496Z,97383.19
2018-12-14T23:17:31.400Z,97383.97
2018-12-14T23:19:57.329Z,97384.16
2018-12-14T23:22:23.239Z,97377.48
2018-12-14T23:24:49.182Z,97378.88
2018-12-14T23:27:15.085Z,97372.24
2018-12-14T23:29:40.972Z,97376.53
2018-12-14T23:32:07.078Z,97372.07
2018-12-14T23:34:32.966Z,97371.11
2018-12-14T23:36:58.874Z,97376.94
2018-12-14T23:39:24.779Z,97371.45
2018-12-14T23:41:50.644Z,97369.65
2018-12-14T23:44:16.514Z,97367.02
2018-12-14T23:46:42.508Z,97375.86
2018-12-14T23:49:08.459Z,97379.00
2018-12-14T23:51:34.424Z,97376.88
2018-12-14T23:54:00.403Z,97382.05
2018-12-14T23:56:26.398Z,97380.30
2018-12-14T23:58:53.007Z,97383.47
